sensor_id;sensor_type;location;lat;lon;timestamp;temperature;humidity
16863;DHT22;52193;48.216;-1.698;2022-12-07T00:01:30;9.20;99.90
16863;DHT22;52193;48.216;-1.698;2022-12-07T00:03:59;9.20;99.90
16863;DHT22;52193;48.216;-1.698;2022-12-07T00:06:31;9.20;99.90
16863;DHT22;52193;48.216;-1.698;2022-12-07T00:08:58;9.20;99.90
16863;DHT22;52193;48.216;-1.698;2022-12-07T00:11:26;9.10;99.90
16863;DHT22;52193;48.216;-1.698;2022-12-07T00:13:54;9.10;99.90
16863;DHT22;52193;48.216;-1.698;2022-12-07T00:16:25;9.10;99.90
16863;DHT22;52193;48.216;-1.698;2022-12-07T00:18:52;9.00;99.90
16863;DHT22;52193;48.216;-1.698;2022-12-07T00:21:21;9.00;99.90
16863;DHT22;52193;48.216;-1.698;2022-12-07T00:23:50;9.00;99.90
16863;DHT22;52193;48.216;-1.698;2022-12-07T00:26:20;9.00;99.90
16863;DHT22;52193;48.216;-1.698;2022-12-07T00:28:47;9.00;99.90
16863;DHT22;52193;48.216;-1.698;2022-12-07T00:31:16;9.00;99.90
16863;DHT22;52193;48.216;-1.698;2022-12-07T00:33:44;9.00;99.90
16863;DHT22;52193;48.216;-1.698;2022-12-07T00:36:13;8.80;99.90
16863;DHT22;52193;48.216;-1.698;2022-12-07T00:38:40;8.90;99.90
16863;DHT22;52193;48.216;-1.698;2022-12-07T00:41:12;8.90;99.90
16863;DHT22;52193;48.216;-1.698;2022-12-07T00:43:40;9.00;99.90
16863;DHT22;52193;48.216;-1.698;2022-12-07T00:46:09;9.00;99.90
16863;DHT22;52193;48.216;-1.698;2022-12-07T00:48:36;9.00;99.90
16863;DHT22;52193;48.216;-1.698;2022-12-07T00:51:04;9.00;99.90
16863;DHT22;52193;48.216;-1.698;2022-12-07T00:53:34;8.90;99.90
16863;DHT22;52193;48.216;-1.698;2022-12-07T00:56:05;8.90;99.90
16863;DHT22;52193;48.216;-1.698;2022-12-07T00:58:34;8.90;99.90
16863;DHT22;52193;48.216;-1.698;2022-12-07T01:01:02;8.90;99.90
16863;DHT22;52193;48.216;-1.698;2022-12-07T01:03:29;8.90;99.90
16863;DHT22;52193;48.216;-1.698;2022-12-07T01:05:57;8.90;99.90
16863;DHT22;52193;48.216;-1.698;2022-12-07T01:08:25;8.80;99.90
16863;DHT22;52193;48.216;-1.698;2022-12-07T01:10:58;8.80;99.90
16863;DHT22;52193;48.216;-1.698;2022-12-07T01:13:25;8.80;99.90
16863;DHT22;52193;48.216;-1.698;2022-12-07T01:15:57;8.80;99.90
16863;DHT22;52193;48.216;-1.698;2022-12-07T01:18:26;8.80;99.90
16863;DHT22;52193;48.216;-1.698;2022-12-07T01:21:00;8.80;99.90
16863;DHT22;52193;48.216;-1.698;2022-12-07T01:23:28;8.80;99.90
16863;DHT22;52193;48.216;-1.698;2022-12-07T01:25:56;8.80;99.90
16863;DHT22;52193;48.216;-1.698;2022-12-07T01:28:23;8.80;99.90
16863;DHT22;52193;48.216;-1.698;2022-12-07T01:30:59;8.70;99.90
16863;DHT22;52193;48.216;-1.698;2022-12-07T01:33:27;8.70;99.90
16863;DHT22;52193;48.216;-1.698;2022-12-07T01:36:00;8.70;99.90
16863;DHT22;52193;48.216;-1.698;2022-12-07T01:38:27;8.70;99.90
16863;DHT22;52193;48.216;-1.698;2022-12-07T01:40:55;8.60;99.90
16863;DHT22;52193;48.216;-1.698;2022-12-07T01:43:23;8.60;99.90
16863;DHT22;52193;48.216;-1.698;2022-12-07T01:45:50;8.60;99.90
16863;DHT22;52193;48.216;-1.698;2022-12-07T01:48:21;8.60;99.90
16863;DHT22;52193;48.216;-1.698;2022-12-07T01:50:50;8.50;99.90
16863;DHT22;52193;48.216;-1.698;2022-12-07T01:53:18;8.50;99.90
16863;DHT22;52193;48.216;-1.698;2022-12-07T01:55:48;8.50;99.90
16863;DHT22;52193;48.216;-1.698;2022-12-07T01:58:19;8.50;99.90
16863;DHT22;52193;48.216;-1.698;2022-12-07T02:00:46;8.50;99.90
16863;DHT22;52193;48.216;-1.698;2022-12-07T02:03:17;8.50;99.90
16863;DHT22;52193;48.216;-1.698;2022-12-07T02:05:47;8.40;99.90
16863;DHT22;52193;48.216;-1.698;2022-12-07T02:08:14;8.40;99.90
16863;DHT22;52193;48.216;-1.698;2022-12-07T02:10:42;8.40;99.90
16863;DHT22;52193;48.216;-1.698;2022-12-07T02:13:12;8.30;99.90
16863;DHT22;52193;48.216;-1.698;2022-12-07T02:16:04;8.30;99.90
16863;DHT22;52193;48.216;-1.698;2022-12-07T02:18:44;8.30;99.90
16863;DHT22;52193;48.216;-1.698;2022-12-07T02:21:23;8.30;99.90
16863;DHT22;52193;48.216;-1.698;2022-12-07T02:24:18;8.20;99.90
16863;DHT22;52193;48.216;-1.698;2022-12-07T02:27:07;8.20;99.90
16863;DHT22;52193;48.216;-1.698;2022-12-07T02:29:43;8.10;99.90
16863;DHT22;52193;48.216;-1.698;2022-12-07T02:32:14;8.20;99.90
16863;DHT22;52193;48.216;-1.698;2022-12-07T02:34:48;8.20;99.90
16863;DHT22;52193;48.216;-1.698;2022-12-07T02:37:25;8.10;99.90
16863;DHT22;52193;48.216;-1.698;2022-12-07T02:39:58;8.10;99.90
16863;DHT22;52193;48.216;-1.698;2022-12-07T02:42:32;8.10;99.90
16863;DHT22;52193;48.216;-1.698;2022-12-07T02:45:02;8.10;99.90
16863;DHT22;52193;48.216;-1.698;2022-12-07T02:47:32;8.10;99.90
16863;DHT22;52193;48.216;-1.698;2022-12-07T02:50:03;8.10;99.90
16863;DHT22;52193;48.216;-1.698;2022-12-07T02:52:30;8.10;99.90
16863;DHT22;52193;48.216;-1.698;2022-12-07T02:54:57;8.00;99.90
16863;DHT22;52193;48.216;-1.698;2022-12-07T02:57:40;7.90;99.90
16863;DHT22;52193;48.216;-1.698;2022-12-07T03:00:11;7.90;99.90
16863;DHT22;52193;48.216;-1.698;2022-12-07T03:02:49;8.00;99.90
16863;DHT22;52193;48.216;-1.698;2022-12-07T03:08:23;7.90;99.90
16863;DHT22;52193;48.216;-1.698;2022-12-07T03:10:56;7.90;99.90
16863;DHT22;52193;48.216;-1.698;2022-12-07T03:13:29;7.90;99.90
16863;DHT22;52193;48.216;-1.698;2022-12-07T03:16:04;7.90;99.90
16863;DHT22;52193;48.216;-1.698;2022-12-07T03:18:36;7.90;99.90
16863;DHT22;52193;48.216;-1.698;2022-12-07T03:21:08;7.90;99.90
16863;DHT22;52193;48.216;-1.698;2022-12-07T03:23:38;7.90;99.90
16863;DHT22;52193;48.216;-1.698;2022-12-07T03:26:10;7.90;99.90
16863;DHT22;52193;48.216;-1.698;2022-12-07T03:28:43;7.90;99.90
16863;DHT22;52193;48.216;-1.698;2022-12-07T03:31:16;7.90;99.90
16863;DHT22;52193;48.216;-1.698;2022-12-07T03:33:49;7.90;99.90
16863;DHT22;52193;48.216;-1.698;2022-12-07T03:36:21;7.90;99.90
16863;DHT22;52193;48.216;-1.698;2022-12-07T03:38:53;7.90;99.90
16863;DHT22;52193;48.216;-1.698;2022-12-07T03:41:23;7.90;99.90
16863;DHT22;52193;48.216;-1.698;2022-12-07T03:43:51;7.90;99.90
16863;DHT22;52193;48.216;-1.698;2022-12-07T03:46:29;7.90;99.90
16863;DHT22;52193;48.216;-1.698;2022-12-07T03:49:06;7.90;99.90
16863;DHT22;52193;48.216;-1.698;2022-12-07T03:51:40;7.90;99.90
16863;DHT22;52193;48.216;-1.698;2022-12-07T03:54:13;7.90;99.90
16863;DHT22;52193;48.216;-1.698;2022-12-07T03:56:43;7.90;99.90
16863;DHT22;52193;48.216;-1.698;2022-12-07T03:59:13;7.80;99.90
16863;DHT22;52193;48.216;-1.698;2022-12-07T04:01:43;7.80;99.90
16863;DHT22;52193;48.216;-1.698;2022-12-07T04:04:10;7.90;99.90
16863;DHT22;52193;48.216;-1.698;2022-12-07T04:06:37;7.80;99.90
16863;DHT22;52193;48.216;-1.698;2022-12-07T04:09:04;7.80;99.90
16863;DHT22;52193;48.216;-1.698;2022-12-07T04:11:31;7.80;99.90
16863;DHT22;52193;48.216;-1.698;2022-12-07T04:13:58;7.80;99.90
16863;DHT22;52193;48.216;-1.698;2022-12-07T04:16:44;7.90;99.90
16863;DHT22;52193;48.216;-1.698;2022-12-07T04:19:11;7.90;99.90
16863;DHT22;52193;48.216;-1.698;2022-12-07T04:21:38;7.90;99.90
16863;DHT22;52193;48.216;-1.698;2022-12-07T04:24:06;7.80;99.90
16863;DHT22;52193;48.216;-1.698;2022-12-07T04:26:33;7.80;99.90
16863;DHT22;52193;48.216;-1.698;2022-12-07T04:29:00;7.80;99.90
16863;DHT22;52193;48.216;-1.698;2022-12-07T04:31:27;7.80;99.90
16863;DHT22;52193;48.216;-1.698;2022-12-07T04:33:55;7.80;99.90
16863;DHT22;52193;48.216;-1.698;2022-12-07T04:36:22;7.90;99.90
16863;DHT22;52193;48.216;-1.698;2022-12-07T04:38:49;7.90;99.90
16863;DHT22;52193;48.216;-1.698;2022-12-07T04:41:16;7.80;99.90
16863;DHT22;52193;48.216;-1.698;2022-12-07T04:43:43;7.80;99.90
16863;DHT22;52193;48.216;-1.698;2022-12-07T04:46:10;7.70;99.90
16863;DHT22;52193;48.216;-1.698;2022-12-07T04:48:37;7.80;99.90
16863;DHT22;52193;48.216;-1.698;2022-12-07T04:51:06;7.80;99.90
16863;DHT22;52193;48.216;-1.698;2022-12-07T04:53:33;7.70;99.90
16863;DHT22;52193;48.216;-1.698;2022-12-07T04:55:59;7.70;99.90
16863;DHT22;52193;48.216;-1.698;2022-12-07T04:58:27;7.70;99.90
16863;DHT22;52193;48.216;-1.698;2022-12-07T05:00:54;7.80;99.90
16863;DHT22;52193;48.216;-1.698;2022-12-07T05:03:21;7.80;99.90
16863;DHT22;52193;48.216;-1.698;2022-12-07T05:05:48;7.80;99.90
16863;DHT22;52193;48.216;-1.698;2022-12-07T05:08:17;7.70;99.90
16863;DHT22;52193;48.216;-1.698;2022-12-07T05:10:44;7.70;99.90
16863;DHT22;52193;48.216;-1.698;2022-12-07T05:13:11;7.70;99.90
16863;DHT22;52193;48.216;-1.698;2022-12-07T05:15:38;7.80;99.90
16863;DHT22;52193;48.216;-1.698;2022-12-07T05:18:05;7.90;99.90
16863;DHT22;52193;48.216;-1.698;2022-12-07T05:20:32;7.90;99.90
16863;DHT22;52193;48.216;-1.698;2022-12-07T05:22:59;7.90;99.90
16863;DHT22;52193;48.216;-1.698;2022-12-07T05:25:27;8.00;99.90
16863;DHT22;52193;48.216;-1.698;2022-12-07T05:27:55;8.00;99.80
16863;DHT22;52193;48.216;-1.698;2022-12-07T05:30:22;8.00;99.80
16863;DHT22;52193;48.216;-1.698;2022-12-07T05:32:49;8.00;99.90
16863;DHT22;52193;48.216;-1.698;2022-12-07T05:35:16;8.00;99.90
16863;DHT22;52193;48.216;-1.698;2022-12-07T05:37:43;7.90;99.90
16863;DHT22;52193;48.216;-1.698;2022-12-07T05:40:12;7.90;99.90
16863;DHT22;52193;48.216;-1.698;2022-12-07T05:42:41;7.80;99.90
16863;DHT22;52193;48.216;-1.698;2022-12-07T05:45:09;7.70;99.90
16863;DHT22;52193;48.216;-1.698;2022-12-07T05:47:37;7.80;99.90
16863;DHT22;52193;48.216;-1.698;2022-12-07T05:50:06;7.70;99.90
16863;DHT22;52193;48.216;-1.698;2022-12-07T05:52:33;7.70;99.90
16863;DHT22;52193;48.216;-1.698;2022-12-07T05:55:00;7.70;99.90
16863;DHT22;52193;48.216;-1.698;2022-12-07T05:57:27;7.70;99.90
16863;DHT22;52193;48.216;-1.698;2022-12-07T05:59:55;7.60;99.90
16863;DHT22;52193;48.216;-1.698;2022-12-07T06:02:21;7.50;99.90
16863;DHT22;52193;48.216;-1.698;2022-12-07T06:04:48;7.50;99.90
16863;DHT22;52193;48.216;-1.698;2022-12-07T06:07:16;7.40;99.90
16863;DHT22;52193;48.216;-1.698;2022-12-07T06:09:43;7.40;99.90
16863;DHT22;52193;48.216;-1.698;2022-12-07T06:12:11;7.40;99.90
16863;DHT22;52193;48.216;-1.698;2022-12-07T06:14:58;7.50;99.90
16863;DHT22;52193;48.216;-1.698;2022-12-07T06:17:25;7.60;99.90
16863;DHT22;52193;48.216;-1.698;2022-12-07T06:19:52;7.60;99.90
16863;DHT22;52193;48.216;-1.698;2022-12-07T06:22:19;7.60;99.90
16863;DHT22;52193;48.216;-1.698;2022-12-07T06:24:46;7.60;99.90
16863;DHT22;52193;48.216;-1.698;2022-12-07T06:27:13;7.60;99.90
16863;DHT22;52193;48.216;-1.698;2022-12-07T06:29:40;7.60;99.90
16863;DHT22;52193;48.216;-1.698;2022-12-07T06:32:08;7.50;99.90
16863;DHT22;52193;48.216;-1.698;2022-12-07T06:34:36;7.40;99.90
16863;DHT22;52193;48.216;-1.698;2022-12-07T06:37:03;7.50;99.90
16863;DHT22;52193;48.216;-1.698;2022-12-07T06:39:30;7.40;99.90
16863;DHT22;52193;48.216;-1.698;2022-12-07T06:41:57;7.40;99.90
16863;DHT22;52193;48.216;-1.698;2022-12-07T06:44:25;7.40;99.90
16863;DHT22;52193;48.216;-1.698;2022-12-07T06:46:52;7.50;99.90
16863;DHT22;52193;48.216;-1.698;2022-12-07T06:49:20;7.40;99.90
16863;DHT22;52193;48.216;-1.698;2022-12-07T06:51:47;7.40;99.90
16863;DHT22;52193;48.216;-1.698;2022-12-07T06:54:15;7.40;99.90
16863;DHT22;52193;48.216;-1.698;2022-12-07T06:56:42;7.50;99.90
16863;DHT22;52193;48.216;-1.698;2022-12-07T06:59:09;7.40;99.90
16863;DHT22;52193;48.216;-1.698;2022-12-07T07:01:36;7.50;99.90
16863;DHT22;52193;48.216;-1.698;2022-12-07T07:04:04;7.50;99.90
16863;DHT22;52193;48.216;-1.698;2022-12-07T07:06:32;7.40;99.90
16863;DHT22;52193;48.216;-1.698;2022-12-07T07:08:59;7.50;99.90
16863;DHT22;52193;48.216;-1.698;2022-12-07T07:11:26;7.40;99.90
16863;DHT22;52193;48.216;-1.698;2022-12-07T07:13:53;7.40;99.90
16863;DHT22;52193;48.216;-1.698;2022-12-07T07:16:22;7.40;99.90
16863;DHT22;52193;48.216;-1.698;2022-12-07T07:18:50;7.40;99.90
16863;DHT22;52193;48.216;-1.698;2022-12-07T07:21:17;7.50;99.90
16863;DHT22;52193;48.216;-1.698;2022-12-07T07:23:45;7.40;99.90
16863;DHT22;52193;48.216;-1.698;2022-12-07T07:26:12;7.40;99.90
16863;DHT22;52193;48.216;-1.698;2022-12-07T07:28:39;7.40;99.90
16863;DHT22;52193;48.216;-1.698;2022-12-07T07:31:06;7.50;99.90
16863;DHT22;52193;48.216;-1.698;2022-12-07T07:33:33;7.50;99.90
16863;DHT22;52193;48.216;-1.698;2022-12-07T07:36:00;7.50;99.90
16863;DHT22;52193;48.216;-1.698;2022-12-07T07:38:27;7.50;99.90
16863;DHT22;52193;48.216;-1.698;2022-12-07T07:40:56;7.50;99.90
16863;DHT22;52193;48.216;-1.698;2022-12-07T07:43:22;7.40;99.90
16863;DHT22;52193;48.216;-1.698;2022-12-07T07:45:49;7.40;99.90
16863;DHT22;52193;48.216;-1.698;2022-12-07T07:48:16;7.40;99.90
16863;DHT22;52193;48.216;-1.698;2022-12-07T07:50:43;7.40;99.90
16863;DHT22;52193;48.216;-1.698;2022-12-07T07:53:10;7.40;99.90
16863;DHT22;52193;48.216;-1.698;2022-12-07T07:55:37;7.40;99.90
16863;DHT22;52193;48.216;-1.698;2022-12-07T07:58:06;7.40;99.90
16863;DHT22;52193;48.216;-1.698;2022-12-07T08:00:33;7.50;99.90
16863;DHT22;52193;48.216;-1.698;2022-12-07T08:02:59;7.50;99.90
16863;DHT22;52193;48.216;-1.698;2022-12-07T08:05:26;7.50;99.90
16863;DHT22;52193;48.216;-1.698;2022-12-07T08:07:53;7.50;99.90
16863;DHT22;52193;48.216;-1.698;2022-12-07T08:10:20;7.40;99.90
16863;DHT22;52193;48.216;-1.698;2022-12-07T08:12:47;7.50;99.90
16863;DHT22;52193;48.216;-1.698;2022-12-07T08:15:33;7.50;99.90
16863;DHT22;52193;48.216;-1.698;2022-12-07T08:18:00;7.50;99.90
16863;DHT22;52193;48.216;-1.698;2022-12-07T08:20:29;7.50;99.90
16863;DHT22;52193;48.216;-1.698;2022-12-07T08:22:56;7.50;99.90
16863;DHT22;52193;48.216;-1.698;2022-12-07T08:25:23;7.50;99.90
16863;DHT22;52193;48.216;-1.698;2022-12-07T08:27:51;7.50;99.90
16863;DHT22;52193;48.216;-1.698;2022-12-07T08:30:18;7.50;99.90
16863;DHT22;52193;48.216;-1.698;2022-12-07T08:32:47;7.50;99.90
16863;DHT22;52193;48.216;-1.698;2022-12-07T08:35:15;7.50;99.90
16863;DHT22;52193;48.216;-1.698;2022-12-07T08:37:42;7.50;99.90
16863;DHT22;52193;48.216;-1.698;2022-12-07T08:40:12;7.60;99.90
16863;DHT22;52193;48.216;-1.698;2022-12-07T08:42:41;7.50;99.90
16863;DHT22;52193;48.216;-1.698;2022-12-07T08:45:10;7.60;99.90
16863;DHT22;52193;48.216;-1.698;2022-12-07T08:47:40;7.60;99.90
16863;DHT22;52193;48.216;-1.698;2022-12-07T08:50:10;7.60;99.90
16863;DHT22;52193;48.216;-1.698;2022-12-07T08:52:38;7.60;99.90
16863;DHT22;52193;48.216;-1.698;2022-12-07T08:55:08;7.70;99.90
16863;DHT22;52193;48.216;-1.698;2022-12-07T08:57:36;7.60;99.90
16863;DHT22;52193;48.216;-1.698;2022-12-07T09:00:04;7.60;99.90
16863;DHT22;52193;48.216;-1.698;2022-12-07T09:02:32;7.60;99.90
16863;DHT22;52193;48.216;-1.698;2022-12-07T09:04:59;7.60;99.90
16863;DHT22;52193;48.216;-1.698;2022-12-07T09:07:27;7.60;99.90
16863;DHT22;52193;48.216;-1.698;2022-12-07T09:09:57;7.70;99.90
16863;DHT22;52193;48.216;-1.698;2022-12-07T09:12:24;7.70;99.90
16863;DHT22;52193;48.216;-1.698;2022-12-07T09:14:50;7.70;99.90
16863;DHT22;52193;48.216;-1.698;2022-12-07T09:17:17;7.70;99.90
16863;DHT22;52193;48.216;-1.698;2022-12-07T09:19:44;7.70;99.90
16863;DHT22;52193;48.216;-1.698;2022-12-07T09:22:11;7.70;99.90
16863;DHT22;52193;48.216;-1.698;2022-12-07T09:24:40;7.80;99.90
16863;DHT22;52193;48.216;-1.698;2022-12-07T09:27:07;7.80;99.90
16863;DHT22;52193;48.216;-1.698;2022-12-07T09:29:34;7.70;99.90
16863;DHT22;52193;48.216;-1.698;2022-12-07T09:32:01;7.80;99.90
16863;DHT22;52193;48.216;-1.698;2022-12-07T09:34:30;7.80;99.90
16863;DHT22;52193;48.216;-1.698;2022-12-07T09:36:57;7.70;99.90
16863;DHT22;52193;48.216;-1.698;2022-12-07T09:39:24;7.70;99.90
16863;DHT22;52193;48.216;-1.698;2022-12-07T09:41:53;7.60;99.90
16863;DHT22;52193;48.216;-1.698;2022-12-07T09:44:23;7.70;99.90
16863;DHT22;52193;48.216;-1.698;2022-12-07T09:46:51;7.80;99.90
16863;DHT22;52193;48.216;-1.698;2022-12-07T09:49:20;7.80;99.90
16863;DHT22;52193;48.216;-1.698;2022-12-07T09:51:48;7.80;99.90
16863;DHT22;52193;48.216;-1.698;2022-12-07T09:54:25;7.80;99.90
16863;DHT22;52193;48.216;-1.698;2022-12-07T09:56:53;7.80;99.90
16863;DHT22;52193;48.216;-1.698;2022-12-07T09:59:20;7.90;99.90
16863;DHT22;52193;48.216;-1.698;2022-12-07T10:01:49;7.90;99.90
16863;DHT22;52193;48.216;-1.698;2022-12-07T10:04:18;7.90;99.90
16863;DHT22;52193;48.216;-1.698;2022-12-07T10:06:47;7.90;99.90
16863;DHT22;52193;48.216;-1.698;2022-12-07T10:09:18;8.00;99.90
16863;DHT22;52193;48.216;-1.698;2022-12-07T10:12:04;8.00;99.90
16863;DHT22;52193;48.216;-1.698;2022-12-07T10:14:34;8.10;99.90
16863;DHT22;52193;48.216;-1.698;2022-12-07T10:17:01;8.10;99.90
16863;DHT22;52193;48.216;-1.698;2022-12-07T10:19:31;8.10;99.90
16863;DHT22;52193;48.216;-1.698;2022-12-07T10:22:19;8.20;99.90
16863;DHT22;52193;48.216;-1.698;2022-12-07T10:24:47;8.20;99.90
16863;DHT22;52193;48.216;-1.698;2022-12-07T10:27:21;8.30;99.90
16863;DHT22;52193;48.216;-1.698;2022-12-07T10:29:50;8.30;99.90
16863;DHT22;52193;48.216;-1.698;2022-12-07T10:32:31;8.40;99.90
16863;DHT22;52193;48.216;-1.698;2022-12-07T10:35:20;8.40;99.90
16863;DHT22;52193;48.216;-1.698;2022-12-07T10:37:49;8.40;99.90
16863;DHT22;52193;48.216;-1.698;2022-12-07T10:40:29;8.50;99.90
16863;DHT22;52193;48.216;-1.698;2022-12-07T10:43:15;8.50;99.90
16863;DHT22;52193;48.216;-1.698;2022-12-07T10:46:07;8.50;99.90
16863;DHT22;52193;48.216;-1.698;2022-12-07T10:48:42;8.60;99.90
16863;DHT22;52193;48.216;-1.698;2022-12-07T10:51:19;8.70;99.90
16863;DHT22;52193;48.216;-1.698;2022-12-07T10:53:56;8.70;99.90
16863;DHT22;52193;48.216;-1.698;2022-12-07T10:56:42;8.70;99.90
16863;DHT22;52193;48.216;-1.698;2022-12-07T10:59:30;8.70;99.90
16863;DHT22;52193;48.216;-1.698;2022-12-07T11:02:18;8.80;99.90
16863;DHT22;52193;48.216;-1.698;2022-12-07T11:04:59;8.80;99.90
16863;DHT22;52193;48.216;-1.698;2022-12-07T11:07:38;8.80;99.90
16863;DHT22;52193;48.216;-1.698;2022-12-07T11:10:13;8.90;99.90
16863;DHT22;52193;48.216;-1.698;2022-12-07T11:15:40;9.10;99.90
16863;DHT22;52193;48.216;-1.698;2022-12-07T11:18:14;9.10;99.90
16863;DHT22;52193;48.216;-1.698;2022-12-07T11:20:52;9.20;99.90
16863;DHT22;52193;48.216;-1.698;2022-12-07T11:23:26;9.20;99.90
16863;DHT22;52193;48.216;-1.698;2022-12-07T11:26:02;9.30;99.90
16863;DHT22;52193;48.216;-1.698;2022-12-07T11:28:44;9.30;99.90
16863;DHT22;52193;48.216;-1.698;2022-12-07T11:31:20;9.30;99.90
16863;DHT22;52193;48.216;-1.698;2022-12-07T11:33:52;9.40;99.90
16863;DHT22;52193;48.216;-1.698;2022-12-07T11:36:31;9.30;99.90
16863;DHT22;52193;48.216;-1.698;2022-12-07T11:39:02;9.30;99.90
16863;DHT22;52193;48.216;-1.698;2022-12-07T11:41:34;9.30;99.90
16863;DHT22;52193;48.216;-1.698;2022-12-07T11:44:05;9.40;99.90
16863;DHT22;52193;48.216;-1.698;2022-12-07T11:46:45;9.40;99.90
16863;DHT22;52193;48.216;-1.698;2022-12-07T11:49:19;9.50;99.90
16863;DHT22;52193;48.216;-1.698;2022-12-07T11:51:50;9.50;99.90
16863;DHT22;52193;48.216;-1.698;2022-12-07T11:54:21;9.50;99.90
16863;DHT22;52193;48.216;-1.698;2022-12-07T11:56:51;9.60;99.90
16863;DHT22;52193;48.216;-1.698;2022-12-07T11:59:25;9.60;99.90
16863;DHT22;52193;48.216;-1.698;2022-12-07T12:02:03;9.70;99.90
16863;DHT22;52193;48.216;-1.698;2022-12-07T12:04:47;9.70;99.90
16863;DHT22;52193;48.216;-1.698;2022-12-07T12:07:20;9.70;99.90
16863;DHT22;52193;48.216;-1.698;2022-12-07T12:09:51;9.70;99.90
16863;DHT22;52193;48.216;-1.698;2022-12-07T12:12:46;9.80;99.90
16863;DHT22;52193;48.216;-1.698;2022-12-07T12:15:27;9.90;99.90
16863;DHT22;52193;48.216;-1.698;2022-12-07T12:21:01;9.90;99.90
16863;DHT22;52193;48.216;-1.698;2022-12-07T12:23:36;10.00;99.90
16863;DHT22;52193;48.216;-1.698;2022-12-07T12:26:12;10.10;99.90
16863;DHT22;52193;48.216;-1.698;2022-12-07T12:28:50;10.20;99.90
16863;DHT22;52193;48.216;-1.698;2022-12-07T12:31:35;10.20;99.90
16863;DHT22;52193;48.216;-1.698;2022-12-07T12:34:31;10.20;99.90
16863;DHT22;52193;48.216;-1.698;2022-12-07T12:36:58;10.20;99.90
16863;DHT22;52193;48.216;-1.698;2022-12-07T12:39:25;10.20;99.90
16863;DHT22;52193;48.216;-1.698;2022-12-07T12:41:58;10.20;99.90
16863;DHT22;52193;48.216;-1.698;2022-12-07T12:47:51;10.30;99.90
16863;DHT22;52193;48.216;-1.698;2022-12-07T12:50:23;10.40;99.90
16863;DHT22;52193;48.216;-1.698;2022-12-07T12:58:44;10.60;99.90
16863;DHT22;52193;48.216;-1.698;2022-12-07T13:01:44;10.50;99.90
16863;DHT22;52193;48.216;-1.698;2022-12-07T13:04:37;10.60;99.90
16863;DHT22;52193;48.216;-1.698;2022-12-07T13:07:11;10.60;99.90
16863;DHT22;52193;48.216;-1.698;2022-12-07T13:09:43;10.70;99.90
16863;DHT22;52193;48.216;-1.698;2022-12-07T13:12:16;10.70;99.90
16863;DHT22;52193;48.216;-1.698;2022-12-07T13:14:57;10.70;99.90
16863;DHT22;52193;48.216;-1.698;2022-12-07T13:17:59;10.70;99.90
16863;DHT22;52193;48.216;-1.698;2022-12-07T13:20:48;10.80;99.90
16863;DHT22;52193;48.216;-1.698;2022-12-07T13:23:23;10.80;99.90
16863;DHT22;52193;48.216;-1.698;2022-12-07T13:26:12;10.80;99.90
16863;DHT22;52193;48.216;-1.698;2022-12-07T13:28:41;10.80;99.90
16863;DHT22;52193;48.216;-1.698;2022-12-07T13:31:21;10.80;99.90
16863;DHT22;52193;48.216;-1.698;2022-12-07T13:33:49;10.80;99.90
16863;DHT22;52193;48.216;-1.698;2022-12-07T13:36:21;10.80;99.90
16863;DHT22;52193;48.216;-1.698;2022-12-07T13:38:52;10.80;99.90
16863;DHT22;52193;48.216;-1.698;2022-12-07T13:41:21;10.80;99.90
16863;DHT22;52193;48.216;-1.698;2022-12-07T13:43:59;10.80;99.90
16863;DHT22;52193;48.216;-1.698;2022-12-07T13:46:35;10.90;99.90
16863;DHT22;52193;48.216;-1.698;2022-12-07T13:49:20;10.90;99.90
16863;DHT22;52193;48.216;-1.698;2022-12-07T13:51:48;10.90;99.90
16863;DHT22;52193;48.216;-1.698;2022-12-07T13:54:17;10.90;99.90
16863;DHT22;52193;48.216;-1.698;2022-12-07T13:56:47;11.00;99.90
16863;DHT22;52193;48.216;-1.698;2022-12-07T13:59:17;11.00;99.90
16863;DHT22;52193;48.216;-1.698;2022-12-07T14:01:46;11.00;99.90
16863;DHT22;52193;48.216;-1.698;2022-12-07T14:04:18;11.10;99.90
16863;DHT22;52193;48.216;-1.698;2022-12-07T14:06:49;11.10;99.90
16863;DHT22;52193;48.216;-1.698;2022-12-07T14:09:21;11.20;99.90
16863;DHT22;52193;48.216;-1.698;2022-12-07T14:11:50;11.30;99.90
16863;DHT22;52193;48.216;-1.698;2022-12-07T14:14:20;11.30;99.90
16863;DHT22;52193;48.216;-1.698;2022-12-07T14:16:56;11.40;99.90
16863;DHT22;52193;48.216;-1.698;2022-12-07T14:19:42;11.50;99.90
16863;DHT22;52193;48.216;-1.698;2022-12-07T14:22:28;11.50;99.90
16863;DHT22;52193;48.216;-1.698;2022-12-07T14:25:17;11.50;99.90
16863;DHT22;52193;48.216;-1.698;2022-12-07T14:27:53;11.60;99.90
16863;DHT22;52193;48.216;-1.698;2022-12-07T14:30:22;11.70;99.90
16863;DHT22;52193;48.216;-1.698;2022-12-07T14:32:52;11.80;99.90
16863;DHT22;52193;48.216;-1.698;2022-12-07T14:35:20;11.80;99.90
16863;DHT22;52193;48.216;-1.698;2022-12-07T14:37:48;11.90;99.90
16863;DHT22;52193;48.216;-1.698;2022-12-07T14:40:17;11.90;99.90
16863;DHT22;52193;48.216;-1.698;2022-12-07T14:42:46;12.00;99.90
16863;DHT22;52193;48.216;-1.698;2022-12-07T14:45:16;12.00;99.90
16863;DHT22;52193;48.216;-1.698;2022-12-07T14:47:44;12.00;99.90
16863;DHT22;52193;48.216;-1.698;2022-12-07T14:50:12;12.00;99.90
16863;DHT22;52193;48.216;-1.698;2022-12-07T14:52:40;12.00;99.90
16863;DHT22;52193;48.216;-1.698;2022-12-07T14:55:14;12.00;99.90
16863;DHT22;52193;48.216;-1.698;2022-12-07T14:57:44;12.00;99.90
16863;DHT22;52193;48.216;-1.698;2022-12-07T15:00:14;12.10;99.90
16863;DHT22;52193;48.216;-1.698;2022-12-07T15:02:43;12.10;99.90
16863;DHT22;52193;48.216;-1.698;2022-12-07T15:05:10;12.10;99.90
16863;DHT22;52193;48.216;-1.698;2022-12-07T15:07:37;12.10;99.90
16863;DHT22;52193;48.216;-1.698;2022-12-07T15:10:05;12.10;99.90
16863;DHT22;52193;48.216;-1.698;2022-12-07T15:12:32;12.10;99.90
16863;DHT22;52193;48.216;-1.698;2022-12-07T15:15:01;12.10;99.90
16863;DHT22;52193;48.216;-1.698;2022-12-07T15:17:28;12.10;99.90
16863;DHT22;52193;48.216;-1.698;2022-12-07T15:19:55;12.10;99.90
16863;DHT22;52193;48.216;-1.698;2022-12-07T15:22:22;12.10;99.90
16863;DHT22;52193;48.216;-1.698;2022-12-07T15:24:49;12.10;99.90
16863;DHT22;52193;48.216;-1.698;2022-12-07T15:27:16;12.00;99.90
16863;DHT22;52193;48.216;-1.698;2022-12-07T15:29:43;12.00;99.90
16863;DHT22;52193;48.216;-1.698;2022-12-07T15:32:11;11.90;99.90
16863;DHT22;52193;48.216;-1.698;2022-12-07T15:34:38;11.90;99.90
16863;DHT22;52193;48.216;-1.698;2022-12-07T15:37:05;11.90;99.90
16863;DHT22;52193;48.216;-1.698;2022-12-07T15:39:33;11.90;99.90
16863;DHT22;52193;48.216;-1.698;2022-12-07T15:42:00;11.80;99.90
16863;DHT22;52193;48.216;-1.698;2022-12-07T15:44:26;11.70;99.90
16863;DHT22;52193;48.216;-1.698;2022-12-07T15:47:12;11.70;99.90
16863;DHT22;52193;48.216;-1.698;2022-12-07T15:49:39;11.60;99.90
16863;DHT22;52193;48.216;-1.698;2022-12-07T15:52:06;11.60;99.90
16863;DHT22;52193;48.216;-1.698;2022-12-07T15:54:33;11.60;99.90
16863;DHT22;52193;48.216;-1.698;2022-12-07T15:57:00;11.60;99.90
16863;DHT22;52193;48.216;-1.698;2022-12-07T15:59:28;11.60;99.90
16863;DHT22;52193;48.216;-1.698;2022-12-07T16:01:55;11.50;99.90
16863;DHT22;52193;48.216;-1.698;2022-12-07T16:04:24;11.50;99.90
16863;DHT22;52193;48.216;-1.698;2022-12-07T16:06:51;11.50;99.90
16863;DHT22;52193;48.216;-1.698;2022-12-07T16:09:18;11.40;99.90